Harper, KS (67058)

4:08 PM CDT en Abril 24, 2017 (GMT -0500)
Danville | | Change Station
Aviso en curso: Wind Advisory

Alt 1330 ft 37.28 °N, 97.87 °W | Updated 8 seconds ago

Parcialmente nublado
Parcialmente nublado
76.3 ° F
Sensación térmica 78 ° F
N
16.0
Viento Variable Viento desde ESE

Hoy
Alta -- | Baja -- ° F
--% Posibilidad de precipitaciones
Ayer
Alta -- | Baja -- ° F
Precip. -- pul
Presión 29.56 pul
Visibilidad 10.0 Millas
Nubes Nubes dispersas 20000 ft
Muy nublado 25000 ft
Índice de calor 78 ° F
Punto de rocío 53 ° F
Humedad 45%
Precipitaciones 0.00 pul
Espesor de la nieve No disponible.
6:45 AM 8:15 PM
Creciente menguante, 4% visible
METAR KICT 242053Z 18026G33KT 10SM SCT200 BKN250 24/09 A2958 RMK AO2 PK WND 17040/2003 SLP009 T02390094 56027
Presión 29.56 pul
Visibilidad 10.0 Millas
Nubes Nubes dispersas 20000 ft
Muy nublado 25000 ft
Índice de calor 78 ° F
Punto de rocío 53 ° F
Humedad 45%
Precipitaciones 0.00 pul
Espesor de la nieve No disponible.
6:45 AM 8:15 PM
Creciente menguante, 4% visible
METAR KICT 242053Z 18026G33KT 10SM SCT200 BKN250 24/09 A2958 RMK AO2 PK WND 17040/2003 SLP009 T02390094 56027

Get Your Daily Forecast Email!

Thanks for signing up!

Be on the lookout for a verification email in your inbox.

You'll start receiving severe weather alerts in your inbox..

×

10-Day Weather Forecast

Almanac

Astronomía

Apr. 24, 2017 Salida Puesta
Hora real
Crepúsculo civil
Crepúsculo náutico
Crepúsculo astronómico
Luna
Horas de luz
Horas de luz
Tomorrow will be .
, % of the Moon is Illuminated

Extremos de hoy

Máximos del estado Bajos del estado

Community

WunderPhotos

WunderBlog® & News

Nearby

Calidad del aire

  Calidad del aire Índice AQ Contaminante
Not available.

Grosos de nieve

Estación Profundido Altura

Actividad de terremotos

Ciudad Distance Mag. Tiempo y dato
Magnitud mínima muestra es 2,5.

Temperaturas de aguas costeras

Lugar Temperatura

Stations

Estaciones meteorológicas cercanas

Ubicación de la estación Temp. Vientos helados Punto de rocío Humedad Viento Precip. Alt Actualizado Tipo
                   

Watches & Warnings

Wind Advisory
Issued: 2:54 PM CDT Apr. 24, 2017 – National Weather Service

... Wind Advisory remains in effect until 5 PM CDT this
afternoon...

* winds... south 25 to 35 mph with gusts up to 40 mph.

* Timing... of the strongest winds will be from midday until the
late afternoon.

* Impacts... include sudden strong gusts and cross-winds,
especially on east-west oriented roads and highways could make
driving difficult.

Precautionary/preparedness actions...

A Wind Advisory means that sustained winds of at least 30 mph
and/or wind gusts over 45 mph are expected. Winds this strong
can make driving difficult... especially for high profile
vehicles. Use extra caution.